Time;durP1;ratioP1;P1;durP2;ratioP2;P2;SDS_P1;SDS_P2;PMS_P1;PMS_P2;Temp;Humidity;BMP_temperature;BMP_pressure;BME280_temperature;BME280_humidity;BME280_pressure;Samples;Min_cycle;Max_cycle;Signal;HPM_P1;HPM_P2
2022/08/20 00:00:40;;;;;;;6.00;2.42;;;;;;;16.66;60.13;92447.41;5017485;28;20061;-79
2022/08/20 00:03:33;;;;;;;4.70;2.80;;;;;;;16.71;60.12;92446.47;5009170;28;20092;-78
2022/08/20 00:06:05;;;;;;;4.00;2.40;;;;;;;16.73;60.20;92445.03;5021425;28;20140;-78
2022/08/20 00:08:31;;;;;;;4.25;2.50;;;;;;;16.75;59.86;92437.56;5030490;28;20491;-78
2022/08/20 00:10:58;;;;;;;5.03;2.70;;;;;;;16.79;59.55;92437.66;5027459;28;20033;-78
2022/08/20 00:13:28;;;;;;;4.57;2.33;;;;;;;16.80;59.37;92442.69;5028782;28;20021;-78
2022/08/20 00:15:54;;;;;;;4.13;2.10;;;;;;;16.85;58.88;92439.81;5030018;28;20038;-78
2022/08/20 00:18:21;;;;;;;5.00;2.42;;;;;;;16.95;58.61;92440.50;5034075;28;20044;-78
2022/08/20 00:20:50;;;;;;;4.10;2.25;;;;;;;16.96;59.02;92439.44;5028912;28;20032;-78
2022/08/20 00:23:17;;;;;;;4.18;2.30;;;;;;;16.90;60.03;92435.44;4996536;28;20033;-78
2022/08/20 00:25:43;;;;;;;4.55;2.50;;;;;;;16.80;60.60;92429.47;5013112;28;20045;-78
2022/08/20 00:28:10;;;;;;;5.05;2.00;;;;;;;16.76;60.79;92435.69;5030970;28;20021;-78
2022/08/20 00:30:36;;;;;;;4.40;2.30;;;;;;;16.68;61.10;92434.66;5033954;28;20093;-78
2022/08/20 00:33:06;;;;;;;3.88;2.03;;;;;;;16.66;60.34;92439.50;5031061;28;20087;-78
2022/08/20 00:35:36;;;;;;;4.22;2.15;;;;;;;16.63;60.62;92440.16;5033667;28;20105;-78
2022/08/20 00:38:01;;;;;;;6.80;2.42;;;;;;;16.65;60.19;92449.28;5031696;28;20040;-78
2022/08/20 00:40:34;;;;;;;3.50;1.90;;;;;;;16.74;58.87;92437.88;5032553;28;20038;-78
2022/08/20 00:43:02;;;;;;;4.75;2.20;;;;;;;16.80;58.68;92445.31;5030810;28;20068;-78
2022/08/20 00:45:31;;;;;;;4.30;2.25;;;;;;;16.88;58.48;92448.19;5032391;28;20025;-78
2022/08/20 00:47:57;;;;;;;3.92;2.25;;;;;;;16.90;58.93;92440.72;5032210;28;20048;-78
2022/08/20 00:50:34;;;;;;;4.63;2.20;;;;;;;16.84;59.81;92445.41;5033552;28;20033;-78
2022/08/20 00:53:01;;;;;;;3.80;2.10;;;;;;;16.84;59.64;92448.06;5031955;28;20057;-79
2022/08/20 00:55:28;;;;;;;5.10;2.33;;;;;;;16.85;59.04;92447.75;5032226;28;20602;-78
2022/08/20 00:57:58;;;;;;;4.43;2.10;;;;;;;16.91;58.55;92444.91;5021025;28;20414;-79
2022/08/20 01:00:41;;;;;;;5.25;2.20;;;;;;;16.94;58.16;92446.91;5030101;28;20041;-79
2022/08/20 01:03:10;;;;;;;4.40;2.22;;;;;;;17.09;57.14;92435.72;5024902;28;20068;-78
2022/08/20 01:05:39;;;;;;;5.63;2.35;;;;;;;17.17;57.05;92449.94;5021199;28;20479;-78
2022/08/20 01:08:05;;;;;;;3.88;2.15;;;;;;;17.20;56.84;92450.06;5032686;28;20083;-79
2022/08/20 01:10:35;;;;;;;3.97;2.13;;;;;;;17.26;56.40;92443.44;5032046;28;20046;-78
2022/08/20 01:13:07;;;;;;;3.90;2.10;;;;;;;17.34;55.74;92446.31;5030324;28;20433;-78
2022/08/20 01:15:32;;;;;;;4.65;2.50;;;;;;;17.33;56.33;92442.91;5017567;28;20358;-78
2022/08/20 01:18:00;;;;;;;4.03;2.05;;;;;;;17.33;56.31;92436.84;5012241;28;20040;-79
2022/08/20 01:20:38;;;;;;;3.90;2.10;;;;;;;17.42;55.40;92445.47;5016166;28;20093;-79
2022/08/20 01:23:31;;;;;;;3.72;2.13;;;;;;;17.53;55.16;92451.09;5031207;28;20406;-79
2022/08/20 01:26:08;;;;;;;4.10;2.10;;;;;;;17.64;54.28;92446.91;5025865;28;20452;-78
2022/08/20 01:28:45;;;;;;;6.18;2.25;;;;;;;17.69;54.50;92449.34;5032422;28;20075;-79
2022/08/20 01:31:16;;;;;;;4.90;2.20;;;;;;;17.74;54.13;92448.34;5026811;28;20029;-79
2022/08/20 01:33:43;;;;;;;4.78;2.38;;;;;;;17.74;53.96;92446.47;5029708;28;20044;-79
2022/08/20 01:36:09;;;;;;;3.75;2.22;;;;;;;17.75;54.11;92447.25;5032851;28;20169;-78
2022/08/20 01:38:36;;;;;;;4.35;2.30;;;;;;;17.68;55.79;92445.91;5033040;28;20038;-79
2022/08/20 01:41:07;;;;;;;5.25;2.25;;;;;;;17.61;56.72;92445.69;5031853;28;20036;-79
2022/08/20 01:43:33;;;;;;;6.47;2.30;;;;;;;17.45;57.33;92444.78;5031160;28;20148;-78
2022/08/20 01:46:00;;;;;;;4.75;2.20;;;;;;;17.35;57.76;92455.81;5028422;28;20029;-79
2022/08/20 01:48:26;;;;;;;5.20;2.28;;;;;;;17.25;58.21;92457.78;5012851;28;20383;-78
2022/08/20 01:51:00;;;;;;;4.93;2.40;;;;;;;17.17;58.42;92456.00;5017949;28;20026;-78
2022/08/20 01:53:33;;;;;;;4.90;2.53;;;;;;;17.10;58.83;92458.41;5031663;28;20052;-78
2022/08/20 01:56:06;;;;;;;6.03;2.33;;;;;;;17.01;59.10;92449.78;5024500;28;20494;-78
2022/08/20 01:58:34;;;;;;;4.60;2.47;;;;;;;16.97;59.01;92457.59;5032391;28;20190;-79
2022/08/20 02:01:00;;;;;;;6.57;2.60;;;;;;;16.92;59.64;92454.38;5013352;28;20173;-79
2022/08/20 02:03:25;;;;;;;4.25;2.40;;;;;;;16.85;59.71;92450.41;5032285;28;20069;-78
2022/08/20 02:05:52;;;;;;;4.10;2.10;;;;;;;16.80;60.08;92450.59;5029456;28;20137;-78
2022/08/20 02:08:21;;;;;;;10.13;2.65;;;;;;;16.75;60.18;92457.91;5031039;28;20044;-79
2022/08/20 02:10:48;;;;;;;4.80;2.45;;;;;;;16.65;60.22;92451.16;5032440;28;20033;-78
2022/08/20 02:13:14;;;;;;;4.85;2.50;;;;;;;16.63;60.70;92453.34;5014819;28;20136;-79
2022/08/20 02:15:39;;;;;;;5.18;2.58;;;;;;;16.58;60.87;92446.41;5016234;28;20131;-78
2022/08/20 02:18:09;;;;;;;4.18;2.28;;;;;;;16.54;60.96;92450.03;5031964;28;20498;-79
2022/08/20 02:20:35;;;;;;;7.63;2.65;;;;;;;16.48;61.26;92438.84;5027963;28;20436;-79
2022/08/20 02:23:04;;;;;;;7.00;2.33;;;;;;;16.42;61.59;92443.59;5012962;28;20057;-78
2022/08/20 02:25:32;;;;;;;4.07;2.25;;;;;;;16.42;61.28;92440.16;5011917;28;20029;-79
2022/08/20 02:28:01;;;;;;;5.50;2.50;;;;;;;16.43;60.44;92439.06;5030873;28;20060;-78
2022/08/20 02:30:32;;;;;;;8.43;2.67;;;;;;;16.49;59.73;92437.00;5031890;28;20086;-78
2022/08/20 02:33:03;;;;;;;5.45;2.45;;;;;;;16.58;58.52;92435.06;5029812;28;20029;-78
2022/08/20 02:35:29;;;;;;;4.70;2.50;;;;;;;16.68;58.01;92431.25;5030128;28;20136;-78
2022/08/20 02:37:55;;;;;;;4.68;2.40;;;;;;;16.74;57.77;92422.78;5017218;28;20046;-78
2022/08/20 02:40:25;;;;;;;6.38;2.42;;;;;;;16.80;56.93;92429.47;5011452;28;20030;-78
2022/08/20 02:42:51;;;;;;;4.63;2.40;;;;;;;16.85;57.04;92428.47;5013321;28;20518;-79
2022/08/20 02:45:17;;;;;;;7.63;2.50;;;;;;;16.91;56.96;92431.69;5030303;28;20112;-78
2022/08/20 02:47:44;;;;;;;4.80;2.58;;;;;;;16.90;56.47;92419.56;5029842;28;20033;-79
2022/08/20 02:50:14;;;;;;;4.85;2.53;;;;;;;16.97;56.19;92425.09;5029887;28;20041;-78
2022/08/20 02:52:40;;;;;;;5.07;2.72;;;;;;;17.03;56.19;92427.19;5009826;28;20033;-78
2022/08/20 02:55:07;;;;;;;5.63;2.70;;;;;;;17.07;55.84;92424.69;5012705;28;20034;-78
2022/08/20 02:57:32;;;;;;;6.30;2.67;;;;;;;17.20;55.09;92415.69;5028061;28;20050;-79
2022/08/20 02:59:58;;;;;;;4.70;2.40;;;;;;;17.40;53.80;92410.63;5016749;28;20126;-78
2022/08/20 03:02:24;;;;;;;4.65;2.50;;;;;;;17.39;54.27;92412.50;5031203;28;20128;-78
2022/08/20 03:04:49;;;;;;;10.43;2.58;;;;;;;17.49;53.54;92398.03;5027464;28;20037;-78
2022/08/20 03:07:15;;;;;;;4.93;2.60;;;;;;;17.55;53.40;92401.25;5013541;28;20395;-78
2022/08/20 03:09:41;;;;;;;4.55;2.40;;;;;;;17.55;53.56;92406.56;5028377;28;20411;-79
2022/08/20 03:12:07;;;;;;;9.15;2.85;;;;;;;17.57;53.25;92405.13;5029667;28;20054;-78
2022/08/20 03:14:33;;;;;;;4.43;2.40;;;;;;;17.58;53.14;92396.06;5030229;28;20022;-79
2022/08/20 03:16:59;;;;;;;4.85;2.30;;;;;;;17.64;52.51;92409.84;5029277;28;20499;-79
2022/08/20 03:19:25;;;;;;;9.73;2.63;;;;;;;17.73;52.35;92399.94;5020880;28;20040;-78
2022/08/20 03:21:50;;;;;;;6.25;2.70;;;;;;;17.77;52.28;92403.47;5009993;28;20057;-78
2022/08/20 03:24:16;;;;;;;5.60;2.85;;;;;;;17.78;51.92;92399.69;4993784;28;20034;-78
2022/08/20 03:26:42;;;;;;;5.05;2.35;;;;;;;17.77;52.11;92397.41;5011940;28;20534;-79
2022/08/20 03:29:08;;;;;;;7.03;2.58;;;;;;;17.75;51.82;92400.38;5024757;28;20409;-78
2022/08/20 03:31:34;;;;;;;5.03;2.58;;;;;;;17.77;51.30;92402.69;4993193;28;20434;-79
2022/08/20 03:33:59;;;;;;;5.00;2.65;;;;;;;17.88;50.24;92401.16;5009719;28;20052;-78
2022/08/20 03:36:27;;;;;;;5.97;2.63;;;;;;;17.92;50.12;92393.31;5017138;28;20037;-78
2022/08/20 03:38:54;;;;;;;5.50;2.55;;;;;;;17.88;50.67;92399.28;5027861;28;20029;-79
2022/08/20 03:41:19;;;;;;;7.20;2.50;;;;;;;17.86;50.43;92395.44;5012826;28;20044;-78
2022/08/20 03:43:45;;;;;;;6.13;2.67;;;;;;;17.91;50.15;92394.44;5029036;28;20041;-79
2022/08/20 03:46:11;;;;;;;6.32;2.92;;;;;;;17.86;50.17;92398.06;5027059;28;20029;-79
2022/08/20 03:48:37;;;;;;;6.13;2.90;;;;;;;17.85;50.47;92404.47;5007969;28;20060;-78
2022/08/20 03:51:03;;;;;;;6.18;2.80;;;;;;;17.81;50.55;92387.66;5025358;28;20037;-78
2022/08/20 03:53:30;;;;;;;5.35;2.92;;;;;;;17.87;50.77;92402.25;5030224;28;20034;-78
2022/08/20 03:56:00;;;;;;;5.38;2.70;;;;;;;17.85;50.71;92404.47;5029243;28;20128;-79
2022/08/20 03:58:27;;;;;;;5.47;2.90;;;;;;;17.88;50.25;92407.22;5029379;28;20041;-80
2022/08/20 04:00:54;;;;;;;4.88;2.90;;;;;;;17.87;49.97;92408.31;5028437;28;20041;-78
2022/08/20 04:03:20;;;;;;;6.65;2.83;;;;;;;17.92;50.12;92404.66;5029352;28;20037;-78
2022/08/20 04:05:46;;;;;;;6.28;2.92;;;;;;;17.97;49.48;92401.81;5029044;28;20083;-78
2022/08/20 04:08:17;;;;;;;5.03;2.83;;;;;;;17.98;49.71;92407.88;4980128;28;20041;-79
2022/08/20 04:10:46;;;;;;;5.30;2.90;;;;;;;17.97;49.42;92401.81;5026306;28;20029;-79
2022/08/20 04:13:13;;;;;;;4.68;2.63;;;;;;;17.96;48.11;92408.19;5029064;28;20484;-79
2022/08/20 04:15:38;;;;;;;5.68;2.88;;;;;;;17.99;48.79;92404.09;5012127;28;20566;-78
2022/08/20 04:18:06;;;;;;;5.60;2.78;;;;;;;18.00;48.60;92401.13;5012485;28;20124;-79
2022/08/20 04:20:34;;;;;;;5.22;2.92;;;;;;;17.93;48.54;92406.22;5026030;28;20026;-78
2022/08/20 04:23:00;;;;;;;4.43;2.75;;;;;;;17.92;48.91;92409.97;5009734;28;20069;-78
2022/08/20 04:25:32;;;;;;;6.03;2.67;;;;;;;17.86;49.15;92404.13;5010266;28;20448;-78
2022/08/20 04:27:59;;;;;;;;;;;;;;;17.80;49.15;92408.06;5009660;28;20057;-79
2022/08/20 04:30:25;;;;;;;5.05;2.88;;;;;;;17.72;49.73;92406.34;5015755;28;19927;-78
2022/08/20 04:32:50;;;;;;;5.20;2.50;;;;;;;17.64;50.03;92407.97;5013581;28;20042;-78
2022/08/20 04:35:17;;;;;;;5.22;2.80;;;;;;;17.56;49.94;92413.38;5010709;28;20041;-79
2022/08/20 04:37:45;;;;;;;4.40;2.40;;;;;;;17.55;49.59;92415.25;5008746;28;20033;-79
2022/08/20 04:42:58;;;;;;;6.45;2.92;;;;;;;17.40;51.70;92411.38;5015265;28;20129;-78
2022/08/20 04:45:24;;;;;;;4.88;2.72;;;;;;;17.31;52.64;92420.53;5009209;28;20125;-78
2022/08/20 04:47:51;;;;;;;5.35;2.70;;;;;;;17.23;51.75;92422.94;4992511;28;20092;-78
2022/08/20 04:50:18;;;;;;;5.00;2.50;;;;;;;17.25;50.85;92426.03;5008925;28;20030;-79
2022/08/20 04:52:46;;;;;;;4.53;2.60;;;;;;;17.28;50.15;92425.38;5027724;28;20060;-80
2022/08/20 04:55:12;;;;;;;4.40;2.60;;;;;;;17.41;50.02;92422.75;5040814;28;20041;-82
2022/08/20 04:57:38;;;;;;;5.53;2.65;;;;;;;17.48;49.92;92420.34;5033879;28;20509;-82
2022/08/20 05:00:09;;;;;;;4.53;2.40;;;;;;;17.57;49.75;92421.00;5036555;28;20029;-80
2022/08/20 05:02:34;;;;;;;4.30;2.40;;;;;;;17.67;49.13;92430.38;5032976;28;20116;-78
2022/08/20 05:05:00;;;;;;;4.50;2.50;;;;;;;17.83;48.59;92423.34;5033005;28;20481;-77
2022/08/20 05:07:26;;;;;;;4.60;2.40;;;;;;;17.91;49.06;92423.56;5039002;28;20069;-78
2022/08/20 05:09:51;;;;;;;4.85;2.55;;;;;;;17.99;48.43;92420.00;5035301;28;20044;-79
2022/08/20 05:12:18;;;;;;;5.20;2.53;;;;;;;18.06;49.09;92431.59;5019005;28;20069;-79
2022/08/20 05:14:44;;;;;;;6.35;2.50;;;;;;;18.10;48.84;92427.19;5019732;28;20025;-79
2022/08/20 05:17:13;;;;;;;4.80;2.50;;;;;;;18.18;49.01;92427.38;5019493;28;20136;-77
2022/08/20 05:19:40;;;;;;;3.75;2.05;;;;;;;18.22;49.07;92429.03;5020306;28;20046;-78
2022/08/20 05:22:06;;;;;;;4.25;2.30;;;;;;;18.32;47.58;92427.78;4998607;28;20065;-79
2022/08/20 05:24:32;;;;;;;4.68;2.38;;;;;;;18.37;48.01;92435.50;5030590;28;20041;-79
2022/08/20 05:26:59;;;;;;;4.78;2.05;;;;;;;18.47;47.76;92435.03;5035721;28;20041;-78
2022/08/20 05:29:26;;;;;;;4.40;2.33;;;;;;;18.53;48.12;92435.56;5037925;28;20065;-79
2022/08/20 05:31:53;;;;;;;5.78;2.13;;;;;;;18.61;47.98;92439.19;5038461;28;20040;-79
2022/08/20 05:34:18;;;;;;;4.43;2.17;;;;;;;18.63;48.12;92431.66;5038042;28;20033;-79
2022/08/20 05:36:46;;;;;;;6.70;2.20;;;;;;;18.73;47.43;92431.19;5016921;28;20042;-79
2022/08/20 05:39:12;;;;;;;4.10;2.40;;;;;;;18.83;47.25;92440.56;5018866;28;20554;-78
2022/08/20 05:41:38;;;;;;;4.13;2.33;;;;;;;18.89;47.69;92441.84;5016946;28;20109;-78
2022/08/20 05:44:08;;;;;;;5.45;2.20;;;;;;;18.98;47.09;92442.50;5018179;28;20053;-79
2022/08/20 05:46:34;;;;;;;3.90;2.20;;;;;;;19.09;46.25;92426.84;5036018;28;20045;-79
2022/08/20 05:49:02;;;;;;;4.22;2.15;;;;;;;19.24;46.90;92438.59;5037130;28;20037;-77
2022/08/20 05:51:28;;;;;;;4.78;2.25;;;;;;;19.21;45.76;92434.75;5028450;28;20075;-78
2022/08/20 05:53:55;;;;;;;3.60;2.05;;;;;;;19.23;45.20;92437.84;5036998;28;20042;-79
2022/08/20 05:56:22;;;;;;;4.32;2.25;;;;;;;19.28;45.54;92434.94;5027091;28;20041;-79
2022/08/20 05:58:48;;;;;;;3.83;2.20;;;;;;;19.44;44.72;92434.16;5037583;28;20387;-79
2022/08/20 06:01:13;;;;;;;3.50;1.80;;;;;;;19.54;44.16;92431.78;5038718;28;20042;-79
2022/08/20 06:06:23;;;;;;;3.78;2.00;;;;;;;19.82;43.23;92448.75;5037496;28;20041;-79
2022/08/20 06:08:48;;;;;;;4.45;2.10;;;;;;;19.87;43.59;92443.19;5037592;28;20039;-79
2022/08/20 06:11:14;;;;;;;4.38;2.10;;;;;;;20.00;43.54;92446.50;5036039;28;20041;-78
2022/08/20 06:13:40;;;;;;;3.55;1.70;;;;;;;20.10;43.15;92445.97;5035105;28;20037;-78
2022/08/20 06:16:05;;;;;;;3.50;1.90;;;;;;;20.23;42.24;92436.00;5035797;28;20029;-78
2022/08/20 06:18:31;;;;;;;4.03;1.90;;;;;;;20.67;41.69;92435.78;5037627;28;20033;-78
2022/08/20 06:20:56;;;;;;;3.60;1.80;;;;;;;21.74;39.26;92444.94;5037592;28;20521;-80
2022/08/20 06:23:24;;;;;;;3.42;1.90;;;;;;;22.69;38.22;92441.34;5037546;28;20137;-79
2022/08/20 06:25:49;;;;;;;3.83;2.10;;;;;;;23.80;37.68;92431.88;5036857;28;20067;-80
2022/08/20 06:28:16;;;;;;;4.82;2.00;;;;;;;24.92;36.25;92444.00;5036069;28;20034;-80
2022/08/20 06:30:42;;;;;;;3.40;1.90;;;;;;;25.59;33.63;92437.31;5035700;28;20033;-80
2022/08/20 06:33:07;;;;;;;6.00;1.70;;;;;;;26.26;32.39;92446.53;5033967;28;20045;-80
2022/08/20 06:35:33;;;;;;;2.97;1.77;;;;;;;26.90;31.74;92444.88;5034472;28;20025;-77
2022/08/20 06:37:59;;;;;;;3.92;1.80;;;;;;;26.98;27.56;92441.03;5033469;28;20033;-77
2022/08/20 06:40:27;;;;;;;4.55;2.00;;;;;;;27.37;29.75;92445.47;5034960;28;20040;-80
2022/08/20 06:42:54;;;;;;;3.22;1.80;;;;;;;27.87;29.31;92450.53;5019688;28;20045;-79
2022/08/20 06:45:25;;;;;;;3.10;1.90;;;;;;;28.06;28.09;92435.03;5035658;28;20025;-79
2022/08/20 06:47:53;;;;;;;2.85;1.75;;;;;;;28.34;28.35;92442.09;5036570;28;20049;-77
2022/08/20 06:50:26;;;;;;;3.47;1.80;;;;;;;27.76;29.46;92445.22;5036678;28;20067;-76
2022/08/20 06:52:51;;;;;;;4.22;1.90;;;;;;;28.11;30.48;92440.75;5035192;28;20041;-78
2022/08/20 06:55:17;;;;;;;3.78;1.80;;;;;;;28.18;28.93;92437.22;5036382;28;20399;-77
2022/08/20 06:57:43;;;;;;;3.28;1.70;;;;;;;27.86;28.67;92442.88;5035837;28;20048;-77
2022/08/20 07:00:13;;;;;;;3.17;1.73;;;;;;;27.74;29.65;92441.38;5036606;28;20397;-78
2022/08/20 07:02:39;;;;;;;2.90;1.67;;;;;;;27.61;29.64;92443.78;5036641;28;20037;-78
2022/08/20 07:05:05;;;;;;;3.63;1.98;;;;;;;27.46;30.26;92442.34;5010315;28;20042;-78
2022/08/20 07:07:31;;;;;;;3.40;1.70;;;;;;;27.34;30.37;92440.88;5014754;28;20514;-79
2022/08/20 07:10:07;;;;;;;3.03;1.65;;;;;;;26.96;30.43;92446.78;5035125;28;20045;-81
2022/08/20 07:12:35;;;;;;;2.65;1.58;;;;;;;27.12;31.11;92440.19;5024833;28;20056;-79
2022/08/20 07:15:07;;;;;;;4.47;1.80;;;;;;;26.78;30.74;92448.75;5033039;28;20025;-80
2022/08/20 07:17:33;;;;;;;3.83;1.70;;;;;;;26.71;30.48;92449.53;5031066;28;20041;-78
2022/08/20 07:20:07;;;;;;;2.72;1.67;;;;;;;26.53;31.55;92448.81;5005299;28;20510;-77
2022/08/20 07:22:36;;;;;;;3.30;1.67;;;;;;;26.64;32.09;92449.56;5036516;28;20045;-80
2022/08/20 07:25:07;;;;;;;2.50;1.77;;;;;;;26.62;30.47;92443.81;5028277;28;20034;-78
2022/08/20 07:27:33;;;;;;;4.10;1.60;;;;;;;26.36;30.40;92443.06;5035083;28;20037;-79
2022/08/20 07:32:45;;;;;;;3.97;1.70;;;;;;;26.45;30.14;92447.28;5036714;28;20518;-79
2022/08/20 07:35:13;;;;;;;2.67;1.60;;;;;;;26.69;31.74;92456.47;5037176;28;20032;-81
2022/08/20 07:37:41;;;;;;;3.63;1.67;;;;;;;26.78;30.82;92456.81;5037794;28;20045;-79
2022/08/20 07:40:15;;;;;;;3.50;1.67;;;;;;;26.82;31.03;92448.72;5028705;28;20030;-78
2022/08/20 07:42:41;;;;;;;3.65;1.80;;;;;;;27.00;31.06;92455.59;5024937;28;20029;-79
2022/08/20 07:45:09;;;;;;;5.75;1.67;;;;;;;27.06;30.74;92447.88;5039713;28;20039;-77
2022/08/20 07:47:42;;;;;;;2.83;1.63;;;;;;;27.02;30.69;92441.00;5029730;28;20042;-78
2022/08/20 07:50:10;;;;;;;3.15;1.75;;;;;;;26.99;31.07;92458.66;5020378;28;20037;-77
2022/08/20 07:52:36;;;;;;;3.97;1.80;;;;;;;26.98;30.81;92451.75;5028314;28;20055;-79
2022/08/20 07:55:09;;;;;;;2.50;1.50;;;;;;;26.97;30.24;92450.22;5015972;28;20034;-79
2022/08/20 07:57:36;;;;;;;3.00;1.55;;;;;;;26.19;31.54;92457.28;5017315;28;20038;-78
2022/08/20 08:00:07;;;;;;;4.65;1.83;;;;;;;26.30;31.14;92452.69;5021887;28;20026;-78
2022/08/20 08:02:35;;;;;;;5.72;1.67;;;;;;;26.36;31.93;92453.78;5025669;28;20037;-79
2022/08/20 08:05:00;;;;;;;4.03;1.80;;;;;;;26.25;32.55;92453.03;5020874;28;20037;-79
2022/08/20 08:07:45;;;;;;;3.53;1.60;;;;;;;25.65;31.09;92451.13;5014130;28;20046;-80
2022/08/20 08:10:15;;;;;;;2.63;1.52;;;;;;;25.19;32.94;92457.13;5013072;28;20038;-79
2022/08/20 08:12:46;;;;;;;4.38;1.80;;;;;;;24.86;33.89;92450.88;5014066;28;20072;-78
2022/08/20 08:15:16;;;;;;;2.83;1.47;;;;;;;25.34;33.77;92456.03;5015060;28;20038;-79
2022/08/20 08:17:47;;;;;;;5.30;1.65;;;;;;;25.80;33.15;92458.00;5018490;28;20041;-79
2022/08/20 08:20:13;;;;;;;3.80;1.50;;;;;;;25.73;32.41;92447.28;5018027;28;20041;-78
2022/08/20 08:22:41;;;;;;;2.20;1.52;;;;;;;26.00;31.63;92452.31;5018081;28;20116;-78
2022/08/20 08:25:11;;;;;;;2.58;1.40;;;;;;;26.17;33.78;92459.59;5033845;28;20111;-77
2022/08/20 08:27:38;;;;;;;2.03;1.27;;;;;;;26.36;31.90;92451.13;5030774;28;20048;-78
2022/08/20 08:30:05;;;;;;;2.83;1.50;;;;;;;26.58;32.22;92446.50;5017933;28;20037;-79
2022/08/20 08:32:31;;;;;;;2.85;1.40;;;;;;;26.63;29.88;92453.41;5033890;28;20052;-77
2022/08/20 08:34:58;;;;;;;3.17;1.42;;;;;;;26.76;31.56;92461.81;5024247;28;20038;-79
2022/08/20 08:37:44;;;;;;;2.70;1.30;;;;;;;26.92;31.57;92448.69;5038223;28;20083;-79
2022/08/20 08:40:10;;;;;;;2.85;1.42;;;;;;;26.82;30.08;92446.03;5023888;28;20109;-79
2022/08/20 08:42:56;;;;;;;3.03;1.63;;;;;;;26.92;31.27;92454.06;5007370;28;20072;-79
2022/08/20 08:45:26;;;;;;;3.80;1.42;;;;;;;26.80;32.16;92449.13;5042469;28;20045;-78
2022/08/20 08:47:53;;;;;;;3.63;1.60;;;;;;;26.56;31.65;92448.06;5027860;28;20492;-79
2022/08/20 08:50:26;;;;;;;3.25;1.40;;;;;;;26.31;32.12;92448.06;5022140;28;20176;-78
2022/08/20 08:52:59;;;;;;;2.53;1.45;;;;;;;26.49;32.87;92448.03;5019547;28;20116;-79
2022/08/20 08:55:27;;;;;;;2.45;1.30;;;;;;;26.71;31.29;92452.22;5022595;28;20036;-79
2022/08/20 08:57:57;;;;;;;2.85;1.42;;;;;;;26.67;32.64;92459.53;5020619;28;20025;-78
2022/08/20 09:00:23;;;;;;;3.20;1.45;;;;;;;26.58;30.85;92467.22;5038108;28;20096;-78
2022/08/20 09:02:58;;;;;;;2.15;1.30;;;;;;;26.81;30.57;92452.59;5041068;28;20049;-79
2022/08/20 09:05:31;;;;;;;2.70;1.40;;;;;;;27.01;31.50;92461.72;5037875;28;20116;-77
2022/08/20 09:07:59;;;;;;;3.38;1.45;;;;;;;26.85;31.26;92453.34;5026999;28;20030;-78
2022/08/20 09:10:25;;;;;;;2.83;1.48;;;;;;;27.00;31.89;92460.19;5001017;28;20104;-78
2022/08/20 09:12:51;;;;;;;2.22;1.42;;;;;;;27.14;32.96;92460.13;5016947;28;20073;-78
2022/08/20 09:15:16;;;;;;;2.30;1.40;;;;;;;27.32;32.02;92453.94;5025126;28;20499;-79
2022/08/20 09:17:42;;;;;;;2.35;1.45;;;;;;;27.42;31.33;92453.09;5037413;28;20068;-78
2022/08/20 09:20:09;;;;;;;2.13;1.38;;;;;;;27.49;31.41;92452.31;5038019;28;20037;-78
2022/08/20 09:22:35;;;;;;;2.95;1.50;;;;;;;27.20;32.46;92441.69;5036481;28;20490;-78
2022/08/20 09:25:02;;;;;;;3.78;1.40;;;;;;;27.25;32.87;92453.97;5037579;28;20052;-78
2022/08/20 09:27:28;;;;;;;3.13;1.65;;;;;;;27.36;30.90;92460.06;5020847;28;20191;-78
2022/08/20 09:29:54;;;;;;;2.75;1.50;;;;;;;27.36;30.26;92449.31;5039472;28;20054;-78
2022/08/20 09:32:21;;;;;;;2.30;1.45;;;;;;;27.41;31.40;92452.34;5040016;28;20038;-79
2022/08/20 09:34:54;;;;;;;1.85;1.10;;;;;;;26.82;30.84;92459.47;5033118;28;20060;-79
2022/08/20 09:37:21;;;;;;;2.92;1.30;;;;;;;27.16;30.03;92449.75;5039668;28;20037;-79
2022/08/20 09:39:46;;;;;;;3.80;1.40;;;;;;;27.46;32.46;92443.09;5032056;28;20373;-79
2022/08/20 09:42:16;;;;;;;3.05;1.45;;;;;;;27.60;30.59;92448.38;5034003;28;20047;-80
2022/08/20 09:44:43;;;;;;;2.95;1.52;;;;;;;27.69;31.86;92452.56;5029683;28;20034;-83
2022/08/20 09:47:09;;;;;;;1.98;1.25;;;;;;;27.58;29.85;92448.03;5028688;28;20182;-81
2022/08/20 09:49:39;;;;;;;5.38;1.33;;;;;;;27.76;29.06;92453.28;5034395;28;20497;-81
2022/08/20 09:52:10;;;;;;;3.50;1.20;;;;;;;28.00;30.87;92446.22;5031785;28;20029;-82
2022/08/20 09:54:38;;;;;;;2.40;1.30;;;;;;;28.11;27.60;92438.06;5028566;28;20041;-83
2022/08/20 09:57:07;;;;;;;2.22;1.30;;;;;;;28.09;29.35;92443.06;5030274;28;20349;-79
2022/08/20 09:59:34;;;;;;;1.95;1.23;;;;;;;28.29;28.61;92443.28;5021580;28;20539;-78
2022/08/20 10:02:00;;;;;;;2.10;1.30;;;;;;;28.24;29.03;92444.47;5017141;28;20057;-77
2022/08/20 10:04:25;;;;;;;1.95;1.20;;;;;;;27.67;29.89;92444.13;5033923;28;20396;-76
2022/08/20 10:06:51;;;;;;;1.85;1.20;;;;;;;27.73;32.66;92447.94;5034116;28;20037;-79
2022/08/20 10:09:18;;;;;;;2.50;1.30;;;;;;;27.55;31.03;92438.06;5016690;28;20186;-77
2022/08/20 10:42:56;;;;;;;1.45;1.10;;;;;;;26.65;31.74;92431.53;5182418;23;20129;-91
2022/08/20 10:49:42;;;;;;;1.65;1.10;;;;;;;26.95;32.17;92447.16;5048060;22;20071;-79
2022/08/20 10:52:08;;;;;;;2.47;1.40;;;;;;;27.04;32.40;92439.44;5015399;28;20420;-78
2022/08/20 10:54:33;;;;;;;1.30;1.00;;;;;;;27.08;32.91;92442.88;5052715;28;20049;-77
2022/08/20 10:57:03;;;;;;;1.52;1.02;;;;;;;27.13;32.56;92439.81;5037444;28;20029;-79
2022/08/20 10:59:29;;;;;;;3.72;1.20;;;;;;;27.11;32.60;92439.44;5043550;28;20056;-78
2022/08/20 11:01:54;;;;;;;2.25;1.15;;;;;;;26.86;30.79;92438.75;5047784;28;20048;-79
2022/08/20 11:04:21;;;;;;;1.95;1.17;;;;;;;26.99;30.74;92442.53;5032526;28;20036;-79
2022/08/20 11:06:47;;;;;;;1.75;1.13;;;;;;;27.04;31.63;92438.69;5017417;28;20040;-81
2022/08/20 11:09:12;;;;;;;2.40;1.30;;;;;;;27.07;31.10;92433.31;5032151;28;20025;-80
2022/08/20 11:11:38;;;;;;;1.80;1.20;;;;;;;26.95;33.17;92428.34;5054425;28;20029;-80
2022/08/20 11:14:03;;;;;;;2.30;1.20;;;;;;;27.20;32.23;92430.94;5036302;28;20060;-81
2022/08/20 11:16:29;;;;;;;3.00;1.40;;;;;;;27.37;33.73;92440.09;5038553;28;20043;-79
2022/08/20 11:18:54;;;;;;;1.80;1.20;;;;;;;27.49;33.15;92436.16;5038642;28;20114;-79
2022/08/20 11:21:20;;;;;;;1.85;1.10;;;;;;;27.33;31.95;92434.72;5056075;28;20060;-80
2022/08/20 11:23:46;;;;;;;2.47;1.42;;;;;;;27.33;34.27;92444.72;5056864;28;20037;-80
2022/08/20 11:26:23;;;;;;;3.13;1.25;;;;;;;27.60;33.41;92439.56;5049277;28;20029;-79
2022/08/20 11:28:49;;;;;;;2.50;1.20;;;;;;;27.79;30.89;92432.91;5049447;28;20044;-79
2022/08/20 11:31:15;;;;;;;1.95;1.20;;;;;;;28.07;33.45;92437.31;5038602;28;20025;-80
2022/08/20 11:33:41;;;;;;;2.28;1.20;;;;;;;28.24;31.60;92430.28;5037806;28;20032;-80
2022/08/20 11:36:06;;;;;;;2.00;1.10;;;;;;;28.60;34.05;92440.72;5037889;28;20098;-79
2022/08/20 11:38:32;;;;;;;2.20;1.15;;;;;;;28.84;32.13;92431.59;5036871;28;20039;-80
2022/08/20 11:40:58;;;;;;;2.13;1.30;;;;;;;28.56;30.94;92423.84;5038416;28;20070;-79
2022/08/20 11:43:23;;;;;;;2.50;1.20;;;;;;;28.76;32.63;92432.09;5037738;28;20056;-79
2022/08/20 11:45:53;;;;;;;5.22;1.40;;;;;;;29.05;32.37;92432.53;5037381;28;20115;-80
2022/08/20 11:48:19;;;;;;;3.10;1.33;;;;;;;29.05;32.27;92435.22;5055176;28;20559;-79
2022/08/20 11:50:46;;;;;;;1.23;0.90;;;;;;;29.23;32.31;92433.09;5019997;28;20056;-79
2022/08/20 11:53:11;;;;;;;2.53;1.10;;;;;;;28.73;31.38;92427.47;5020878;28;20449;-79
2022/08/20 11:55:37;;;;;;;2.55;1.20;;;;;;;28.81;31.41;92427.00;5036558;28;20033;-80
2022/08/20 11:58:03;;;;;;;2.70;1.27;;;;;;;28.21;31.36;92428.34;5054887;28;20041;-79
2022/08/20 12:00:30;;;;;;;1.92;1.17;;;;;;;27.70;30.82;92436.03;5018854;28;20044;-79
2022/08/20 12:02:56;;;;;;;2.22;1.20;;;;;;;27.47;31.10;92425.03;5054947;28;20101;-79
2022/08/20 12:05:21;;;;;;;1.70;1.15;;;;;;;27.61;32.42;92428.41;5055172;28;20072;-79
2022/08/20 12:07:47;;;;;;;1.55;1.10;;;;;;;27.37;32.23;92440.09;5054450;28;20032;-79
2022/08/20 12:10:14;;;;;;;3.10;1.20;;;;;;;27.57;32.28;92426.91;5035565;28;20422;-79
2022/08/20 12:12:40;;;;;;;1.92;1.20;;;;;;;27.44;31.20;92439.28;5041291;28;20044;-79
2022/08/20 12:15:07;;;;;;;3.58;1.20;;;;;;;27.59;31.91;92435.34;5021068;28;20033;-78
2022/08/20 12:17:34;;;;;;;1.52;1.00;;;;;;;27.77;32.59;92429.84;5039760;28;20060;-79
2022/08/20 12:20:04;;;;;;;1.27;1.08;;;;;;;27.81;33.08;92425.97;5021612;28;20095;-79